Time;durP1;ratioP1;P1;durP2;ratioP2;P2;SDS_P1;SDS_P2;PMS_P1;PMS_P2;Temp;Humidity;BMP_temperature;BMP_pressure;BME280_temperature;BME280_humidity;BME280_pressure;Samples;Min_cycle;Max_cycle;Signal;HPM_P1;HPM_P2
2021/07/27 00:01:27;;;;;;;61.72;25.48;;;;;;;16.26;100.00;101208.97;5212323;28;20037;-65
2021/07/27 00:03:57;;;;;;;55.60;25.00;;;;;;;16.24;100.00;101208.34;5221504;28;20037;-65
2021/07/27 00:06:28;;;;;;;63.50;25.35;;;;;;;16.25;100.00;101209.19;5209544;28;20193;-65
2021/07/27 00:08:58;;;;;;;55.15;25.10;;;;;;;16.24;100.00;101196.69;5215881;28;20017;-65
2021/07/27 00:11:29;;;;;;;56.78;26.20;;;;;;;16.23;100.00;101198.56;5213792;28;20601;-65
2021/07/27 00:13:59;;;;;;;60.22;24.70;;;;;;;16.23;100.00;101200.44;5209757;28;20029;-65
2021/07/27 00:16:30;;;;;;;54.88;24.48;;;;;;;16.21;100.00;101205.19;5210887;28;20021;-65
2021/07/27 00:19:00;;;;;;;68.35;24.80;;;;;;;16.19;100.00;101191.03;5215088;28;20033;-65
2021/07/27 00:21:31;;;;;;;67.18;25.70;;;;;;;16.17;100.00;101191.22;5215667;28;20040;-65
2021/07/27 00:24:02;;;;;;;56.00;24.60;;;;;;;16.16;100.00;101186.81;5210116;28;20027;-65
2021/07/27 00:26:34;;;;;;;58.95;24.25;;;;;;;16.12;100.00;101185.56;5209834;28;20029;-65
2021/07/27 00:29:05;;;;;;;59.47;24.17;;;;;;;16.09;100.00;101190.50;5213260;28;20024;-65
2021/07/27 00:31:35;;;;;;;61.47;23.65;;;;;;;16.07;100.00;101185.31;5215552;28;20029;-65
2021/07/27 00:34:06;;;;;;;55.83;23.90;;;;;;;16.03;100.00;101184.84;5212658;28;20025;-65
2021/07/27 00:36:36;;;;;;;60.20;24.48;;;;;;;15.99;100.00;101185.41;5209153;28;20083;-65
2021/07/27 00:39:07;;;;;;;65.03;24.58;;;;;;;15.97;100.00;101180.22;5222212;28;20100;-65
2021/07/27 00:41:38;;;;;;;57.88;23.25;;;;;;;15.92;100.00;101182.66;5209312;28;20540;-64
2021/07/27 00:44:08;;;;;;;54.95;23.27;;;;;;;15.86;100.00;101186.13;5209304;28;20037;-65
2021/07/27 00:46:38;;;;;;;63.38;24.50;;;;;;;15.77;100.00;101182.72;5215653;28;20033;-65
2021/07/27 00:49:10;;;;;;;73.47;26.02;;;;;;;15.70;100.00;101187.19;5214526;28;20040;-65
2021/07/27 00:51:40;;;;;;;66.85;25.60;;;;;;;15.66;100.00;101180.53;5210437;28;20043;-64
2021/07/27 00:54:11;;;;;;;62.25;24.92;;;;;;;15.61;100.00;101182.06;5208934;28;20025;-64
2021/07/27 00:56:41;;;;;;;67.88;25.30;;;;;;;15.58;100.00;101172.50;5212795;28;20108;-64
2021/07/27 00:59:12;;;;;;;65.07;24.85;;;;;;;15.53;100.00;101180.34;5214099;28;20029;-65
2021/07/27 01:01:42;;;;;;;58.72;24.00;;;;;;;15.46;100.00;101169.44;5212724;28;20021;-64
2021/07/27 01:04:13;;;;;;;72.57;27.88;;;;;;;15.42;100.00;101168.16;5221508;28;20099;-64
2021/07/27 01:06:44;;;;;;;77.15;27.95;;;;;;;15.37;100.00;101167.88;5206965;28;20025;-64
2021/07/27 01:09:14;;;;;;;71.18;26.58;;;;;;;15.33;100.00;101163.88;5214341;28;20041;-65
2021/07/27 01:11:45;;;;;;;65.72;27.77;;;;;;;15.25;100.00;101156.69;5214935;28;20025;-64
2021/07/27 01:14:16;;;;;;;75.72;26.23;;;;;;;15.20;100.00;101151.03;5209327;28;20564;-65
2021/07/27 01:16:46;;;;;;;84.30;28.50;;;;;;;15.12;100.00;101163.84;5209028;28;20060;-64
2021/07/27 01:39:20;;;;;;;76.35;27.52;;;;;;;14.72;100.00;101145.22;5211440;28;20021;-64
2021/07/27 01:42:05;;;;;;;80.53;28.42;;;;;;;14.74;100.00;101145.84;5214656;28;20075;-64
2021/07/27 01:44:44;;;;;;;83.95;30.15;;;;;;;14.69;100.00;101150.97;5214116;28;20025;-64
2021/07/27 01:47:19;;;;;;;87.78;29.33;;;;;;;14.64;100.00;101155.25;5213214;28;20025;-64
2021/07/27 01:49:50;;;;;;;77.40;26.92;;;;;;;14.60;100.00;101148.56;5207682;28;20021;-64
2021/07/27 01:52:23;;;;;;;98.93;31.63;;;;;;;14.68;100.00;101148.47;5208411;28;20017;-64
2021/07/27 01:54:56;;;;;;;101.47;32.53;;;;;;;14.66;100.00;101140.56;5213537;28;20488;-64
2021/07/27 01:57:28;;;;;;;93.30;32.22;;;;;;;14.63;100.00;101151.72;5205663;28;20082;-64
2021/07/27 02:00:00;;;;;;;90.63;30.52;;;;;;;14.60;100.00;101156.66;5211529;28;20043;-64
2021/07/27 02:02:31;;;;;;;95.72;33.33;;;;;;;14.57;100.00;101146.25;5217760;28;20479;-64
2021/07/27 02:05:02;;;;;;;95.93;33.60;;;;;;;14.62;100.00;101151.91;5217570;28;20083;-64
2021/07/27 02:07:36;;;;;;;98.43;33.72;;;;;;;14.62;100.00;101147.34;5203629;28;20033;-64
2021/07/27 02:10:11;;;;;;;102.07;33.63;;;;;;;14.59;100.00;101145.00;5207817;28;20022;-64
2021/07/27 02:12:50;;;;;;;103.43;33.63;;;;;;;14.58;100.00;101139.81;5213001;28;20022;-64
2021/07/27 02:15:21;;;;;;;96.18;32.00;;;;;;;14.54;100.00;101141.19;5214363;28;20029;-64
2021/07/27 02:17:52;;;;;;;93.43;32.65;;;;;;;14.53;100.00;101145.75;5215634;28;20021;-63
2021/07/27 02:20:22;;;;;;;84.05;30.75;;;;;;;14.52;100.00;101140.56;5211438;28;20029;-64
2021/07/27 02:22:53;;;;;;;95.85;33.40;;;;;;;14.57;100.00;101141.66;5212903;28;20067;-64
2021/07/27 02:25:23;;;;;;;107.90;34.97;;;;;;;14.57;100.00;101138.13;5218125;28;20060;-64
2021/07/27 02:27:54;;;;;;;111.35;35.47;;;;;;;14.59;100.00;101134.22;5218264;28;20031;-64
2021/07/27 02:30:24;;;;;;;107.32;36.20;;;;;;;14.59;100.00;101142.31;5211151;28;20029;-63
2021/07/27 02:32:55;;;;;;;105.72;35.03;;;;;;;14.58;100.00;101137.94;5212159;28;20060;-64
2021/07/27 02:35:27;;;;;;;98.55;35.05;;;;;;;14.56;100.00;101140.00;5199086;28;20394;-64
2021/07/27 02:37:58;;;;;;;96.43;34.28;;;;;;;14.54;100.00;101136.63;5217855;28;20486;-64
2021/07/27 02:40:28;;;;;;;91.53;33.85;;;;;;;14.53;100.00;101139.53;5203856;28;20052;-64
2021/07/27 02:43:01;;;;;;;91.60;32.67;;;;;;;14.48;100.00;101137.38;5217352;28;20377;-64
2021/07/27 02:45:32;;;;;;;93.65;33.00;;;;;;;14.45;100.00;101130.44;5216395;28;20189;-64
2021/07/27 02:48:03;;;;;;;86.15;30.00;;;;;;;14.41;100.00;101139.97;5211506;28;20108;-64
2021/07/27 02:50:34;;;;;;;87.15;29.95;;;;;;;14.34;100.00;101130.91;5211245;28;20018;-64
2021/07/27 02:53:05;;;;;;;86.97;30.27;;;;;;;14.29;100.00;101135.19;5211144;28;21158;-64
2021/07/27 02:55:35;;;;;;;76.53;27.20;;;;;;;14.25;100.00;101132.84;5211482;28;20026;-64
2021/07/27 02:58:13;;;;;;;83.88;30.48;;;;;;;14.22;100.00;101135.06;5214934;28;20096;-63
2021/07/27 03:00:43;;;;;;;80.32;29.95;;;;;;;14.18;100.00;101128.38;5210577;28;20555;-65
2021/07/27 03:03:14;;;;;;;73.65;27.13;;;;;;;14.16;100.00;101142.03;5224636;28;20029;-63
2021/07/27 03:05:44;;;;;;;81.03;28.10;;;;;;;14.11;100.00;101135.53;5216540;28;20057;-64
2021/07/27 03:08:20;;;;;;;79.85;28.80;;;;;;;14.06;100.00;101136.06;5215964;28;20446;-63
2021/07/27 03:10:53;;;;;;;89.78;29.83;;;;;;;14.05;100.00;101139.75;5210453;28;21239;-63
2021/07/27 03:13:23;;;;;;;81.35;28.45;;;;;;;14.03;100.00;101133.72;5211071;28;20029;-64
2021/07/27 03:15:54;;;;;;;80.32;27.33;;;;;;;14.03;100.00;101124.78;5216383;28;20037;-63
2021/07/27 03:18:24;;;;;;;95.07;29.92;;;;;;;14.08;100.00;101125.09;5216932;28;20025;-63
2021/07/27 03:20:55;;;;;;;88.15;28.27;;;;;;;14.04;100.00;101131.84;5212148;28;20033;-64
2021/07/27 03:23:27;;;;;;;88.30;27.92;;;;;;;14.02;100.00;101133.91;5210932;28;20021;-64
2021/07/27 03:25:57;;;;;;;84.97;28.83;;;;;;;14.02;100.00;101126.66;5213968;28;20376;-63
2021/07/27 03:28:28;;;;;;;75.00;24.85;;;;;;;13.98;100.00;101128.88;5216868;28;20041;-63
2021/07/27 03:30:59;;;;;;;55.50;22.20;;;;;;;13.91;100.00;101127.09;5214865;28;20027;-64
2021/07/27 03:33:29;;;;;;;64.57;22.73;;;;;;;13.88;100.00;101119.34;5210742;28;20066;-64
2021/07/27 03:36:00;;;;;;;74.57;25.13;;;;;;;13.90;100.00;101120.00;5210960;28;20483;-63
2021/07/27 03:38:31;;;;;;;74.10;25.45;;;;;;;13.87;100.00;101123.91;5210786;28;20494;-63
2021/07/27 03:41:05;;;;;;;72.70;26.63;;;;;;;13.84;100.00;101120.72;5209473;28;20117;-63
2021/07/27 03:43:36;;;;;;;79.13;26.70;;;;;;;13.84;100.00;101126.97;5214384;28;20111;-63
2021/07/27 03:46:07;;;;;;;75.28;25.40;;;;;;;13.90;100.00;101123.53;5216724;28;20025;-63
2021/07/27 03:48:37;;;;;;;88.10;29.85;;;;;;;13.98;100.00;101122.63;5203260;28;20055;-63
2021/07/27 03:51:09;;;;;;;82.95;27.77;;;;;;;13.98;100.00;101120.78;5215766;28;20022;-63
2021/07/27 03:53:39;;;;;;;80.65;27.05;;;;;;;14.02;100.00;101115.03;5215099;28;20033;-63
2021/07/27 03:56:11;;;;;;;89.65;32.05;;;;;;;14.05;100.00;101109.25;5207447;28;20032;-63
2021/07/27 03:58:43;;;;;;;84.25;28.08;;;;;;;14.05;100.00;101111.94;5216485;28;20036;-63
2021/07/27 04:01:13;;;;;;;83.05;28.80;;;;;;;14.01;100.00;101114.19;5209781;28;20032;-63
2021/07/27 04:03:44;;;;;;;78.35;26.60;;;;;;;13.96;100.00;101106.66;5221818;28;20029;-63
2021/07/27 04:06:15;;;;;;;68.47;25.10;;;;;;;13.89;100.00;101108.38;5211352;28;20025;-63
2021/07/27 04:08:45;;;;;;;74.13;25.73;;;;;;;13.86;100.00;101114.16;5216196;28;20044;-63
2021/07/27 04:11:16;;;;;;;79.40;26.77;;;;;;;13.84;100.00;101109.94;5211673;28;20067;-63
2021/07/27 04:13:46;;;;;;;77.78;28.83;;;;;;;13.85;100.00;101111.63;5209765;28;20569;-63
2021/07/27 04:16:16;;;;;;;80.65;26.45;;;;;;;13.89;100.00;101118.34;5212773;28;20064;-64
2021/07/27 04:18:48;;;;;;;77.82;28.23;;;;;;;13.95;100.00;101112.19;5215799;28;20056;-63
2021/07/27 04:21:18;;;;;;;91.13;28.35;;;;;;;14.00;100.00;101115.19;5213838;28;20547;-64
2021/07/27 04:23:49;;;;;;;74.20;26.45;;;;;;;14.04;100.00;101111.13;5209412;28;20147;-63
2021/07/27 04:26:19;;;;;;;73.50;26.90;;;;;;;14.07;100.00;101116.16;5210404;28;20021;-63
2021/07/27 04:28:50;;;;;;;72.32;24.35;;;;;;;14.08;100.00;101115.13;5215947;28;20445;-64
2021/07/27 04:31:21;;;;;;;64.07;22.98;;;;;;;14.09;100.00;101116.81;5202205;28;20056;-63
2021/07/27 04:33:51;;;;;;;58.47;22.30;;;;;;;14.08;100.00;101115.13;5214704;28;20021;-63
2021/07/27 04:36:21;;;;;;;63.33;22.52;;;;;;;14.08;100.00;101104.34;5215673;28;20136;-63
2021/07/27 04:38:52;;;;;;;54.95;21.55;;;;;;;14.10;100.00;101102.28;5210890;28;20032;-63
2021/07/27 04:41:22;;;;;;;65.43;24.38;;;;;;;14.11;100.00;101109.38;5208056;28;20572;-63
2021/07/27 04:43:53;;;;;;;71.05;25.08;;;;;;;14.18;100.00;101107.63;5212898;28;20056;-64
2021/07/27 04:46:23;;;;;;;73.65;26.27;;;;;;;14.27;100.00;101107.53;5215718;28;20815;-64
2021/07/27 04:48:54;;;;;;;69.72;25.90;;;;;;;14.36;100.00;101106.44;5213293;28;20137;-63
2021/07/27 04:51:24;;;;;;;89.32;29.60;;;;;;;14.52;100.00;101102.75;5208384;28;20024;-63
2021/07/27 04:53:58;;;;;;;77.30;27.90;;;;;;;14.76;100.00;101097.09;5209325;28;20391;-64
2021/07/27 04:56:31;;;;;;;82.20;28.45;;;;;;;14.88;100.00;101100.13;5215216;28;20029;-63
2021/07/27 04:59:02;;;;;;;82.45;28.20;;;;;;;15.00;100.00;101099.44;5214426;28;20560;-63
2021/07/27 05:01:32;;;;;;;68.70;26.65;;;;;;;15.12;100.00;101102.50;5210646;28;20033;-63
2021/07/27 05:04:03;;;;;;;80.93;29.73;;;;;;;15.20;100.00;101099.69;5219432;28;20037;-64
2021/07/27 05:06:34;;;;;;;76.40;27.60;;;;;;;15.29;100.00;101103.13;5201426;28;20033;-63
2021/07/27 05:09:05;;;;;;;77.13;28.83;;;;;;;15.38;100.00;101104.69;5214494;28;20152;-63
2021/07/27 05:11:35;;;;;;;84.18;29.00;;;;;;;15.50;100.00;101094.19;5214362;28;20028;-64
2021/07/27 05:14:07;;;;;;;72.75;26.20;;;;;;;15.69;100.00;101103.56;5208750;28;20024;-64
2021/07/27 05:16:38;;;;;;;72.40;26.00;;;;;;;15.80;100.00;101100.31;5208812;28;20111;-64
2021/07/27 05:19:08;;;;;;;64.65;24.60;;;;;;;15.87;100.00;101100.41;5212806;28;20506;-64
2021/07/27 05:21:40;;;;;;;65.05;25.67;;;;;;;16.00;100.00;101090.50;5214806;28;20040;-63
2021/07/27 05:24:11;;;;;;;71.65;26.02;;;;;;;16.15;100.00;101089.59;5211235;28;20033;-63
2021/07/27 05:26:41;;;;;;;56.92;24.02;;;;;;;16.25;100.00;101095.50;5190964;28;20025;-64
2021/07/27 05:29:12;;;;;;;51.45;23.08;;;;;;;16.35;100.00;101092.44;5210638;28;20028;-64
2021/07/27 05:31:42;;;;;;;50.85;23.67;;;;;;;16.33;100.00;101084.53;5214647;28;20061;-64
2021/07/27 05:34:13;;;;;;;53.88;23.52;;;;;;;16.31;100.00;101084.72;5213439;28;20100;-64
2021/07/27 05:36:44;;;;;;;51.15;21.55;;;;;;;16.28;100.00;101085.13;5208622;28;20032;-64
2021/07/27 05:39:14;;;;;;;49.67;22.38;;;;;;;16.26;100.00;101091.75;5207778;28;20152;-64
2021/07/27 05:41:45;;;;;;;52.88;23.83;;;;;;;16.23;100.00;101095.69;5208576;28;20117;-64
2021/07/27 05:44:15;;;;;;;48.70;22.52;;;;;;;16.23;100.00;101089.44;5207921;28;20099;-64
2021/07/27 05:46:46;;;;;;;57.58;21.70;;;;;;;16.26;100.00;101094.44;5213684;28;20029;-64
2021/07/27 05:49:16;;;;;;;51.55;21.27;;;;;;;16.27;100.00;101090.72;5213561;28;20029;-64
2021/07/27 05:51:48;;;;;;;46.65;22.08;;;;;;;16.37;100.00;101096.63;5213341;28;20025;-64
2021/07/27 05:54:19;;;;;;;47.17;21.38;;;;;;;16.45;100.00;101099.16;5212359;28;20096;-64
2021/07/27 05:56:51;;;;;;;46.53;20.65;;;;;;;16.53;100.00;101099.00;5215429;28;20029;-64
2021/07/27 05:59:22;;;;;;;49.42;21.83;;;;;;;16.62;100.00;101106.97;5218165;28;20018;-64
2021/07/27 06:01:55;;;;;;;51.40;21.23;;;;;;;16.79;100.00;101106.47;5217260;28;20044;-64
2021/07/27 06:04:25;;;;;;;40.17;19.42;;;;;;;16.96;100.00;101100.72;5224787;28;20090;-64
2021/07/27 06:06:56;;;;;;;41.88;19.42;;;;;;;17.13;100.00;101099.34;5209009;28;20033;-64
2021/07/27 06:09:27;;;;;;;40.30;18.98;;;;;;;17.16;100.00;101088.06;5217296;28;20025;-64
2021/07/27 06:11:57;;;;;;;38.80;17.88;;;;;;;17.27;100.00;101101.06;5218634;28;20050;-64
2021/07/27 06:14:28;;;;;;;33.35;16.77;;;;;;;17.45;100.00;101097.75;5214141;28;20387;-64
2021/07/27 06:16:58;;;;;;;30.90;16.67;;;;;;;17.55;100.00;101100.06;5211941;28;20483;-64
2021/07/27 06:19:29;;;;;;;32.33;16.13;;;;;;;17.67;100.00;101100.28;5214322;28;20036;-64
2021/07/27 06:21:59;;;;;;;37.15;16.60;;;;;;;17.77;100.00;101103.44;5218576;28;20034;-64
2021/07/27 06:24:29;;;;;;;37.83;16.38;;;;;;;17.91;100.00;101104.31;5216431;28;20483;-64
2021/07/27 06:27:00;;;;;;;28.17;14.50;;;;;;;18.02;100.00;101101.81;5212125;28;20031;-64
2021/07/27 06:29:31;;;;;;;29.00;15.23;;;;;;;18.46;100.00;101105.72;5224846;28;20029;-64
2021/07/27 06:32:01;;;;;;;23.67;13.38;;;;;;;18.58;100.00;101105.94;5193958;28;20021;-64
2021/07/27 06:34:32;;;;;;;28.08;14.88;;;;;;;18.53;100.00;101112.00;5211762;28;20070;-64
2021/07/27 06:37:02;;;;;;;31.50;13.95;;;;;;;18.54;100.00;101113.66;5207521;28;20163;-64
2021/07/27 06:39:33;;;;;;;27.63;15.18;;;;;;;18.49;100.00;101113.47;5211297;28;20018;-65
2021/07/27 06:42:03;;;;;;;31.15;14.52;;;;;;;18.41;100.00;101119.09;5216424;28;20396;-64
2021/07/27 06:44:34;;;;;;;28.08;13.98;;;;;;;18.34;100.00;101116.41;5217143;28;20021;-64
2021/07/27 06:47:04;;;;;;;34.40;16.02;;;;;;;18.13;100.00;101119.34;5214219;28;20033;-64
2021/07/27 06:49:35;;;;;;;26.50;14.20;;;;;;;18.01;100.00;101116.41;5192898;28;20029;-64
2021/07/27 06:52:06;;;;;;;29.85;15.40;;;;;;;18.03;100.00;101132.53;5213965;28;20021;-64
2021/07/27 06:54:36;;;;;;;29.95;15.48;;;;;;;17.96;100.00;101128.94;5217517;28;20034;-65
2021/07/27 06:57:07;;;;;;;30.83;15.45;;;;;;;18.05;100.00;101136.69;5205494;28;20056;-64
2021/07/27 06:59:37;;;;;;;32.67;15.13;;;;;;;18.19;100.00;101134.81;5217205;28;20026;-64
2021/07/27 07:02:08;;;;;;;28.40;15.65;;;;;;;18.45;100.00;101128.50;5216823;28;20063;-64
2021/07/27 07:04:38;;;;;;;25.65;14.32;;;;;;;18.61;100.00;101119.91;5217259;28;20029;-64
2021/07/27 07:07:09;;;;;;;30.77;15.23;;;;;;;18.78;100.00;101117.63;5206279;28;20075;-65
2021/07/27 07:09:39;;;;;;;26.40;13.98;;;;;;;19.03;100.00;101130.50;5214004;28;20155;-65
2021/07/27 07:12:13;;;;;;;26.63;13.20;;;;;;;19.41;100.00;101123.19;5207419;28;20074;-65
2021/07/27 07:14:43;;;;;;;26.40;14.05;;;;;;;19.72;100.00;101121.56;5213309;28;20032;-65
2021/07/27 07:17:14;;;;;;;34.65;14.70;;;;;;;20.11;100.00;101123.16;5217288;28;20413;-65
2021/07/27 07:19:45;;;;;;;25.77;14.68;;;;;;;20.16;100.00;101117.03;5215372;28;20032;-65
2021/07/27 07:22:16;;;;;;;24.58;13.40;;;;;;;20.35;100.00;101118.75;5211028;28;20397;-64
2021/07/27 07:24:47;;;;;;;26.25;14.45;;;;;;;20.54;100.00;101121.53;5210733;28;20029;-65
2021/07/27 07:27:18;;;;;;;22.48;13.50;;;;;;;20.68;100.00;101126.63;5216770;28;20034;-65
2021/07/27 07:29:52;;;;;;;26.15;14.73;;;;;;;20.68;100.00;101117.59;5216155;28;20102;-65
2021/07/27 07:32:23;;;;;;;22.93;13.73;;;;;;;20.71;100.00;101122.59;5212812;28;20025;-65
2021/07/27 07:34:53;;;;;;;25.02;13.23;;;;;;;20.71;100.00;101125.31;5210820;28;20432;-65
2021/07/27 07:37:24;;;;;;;35.00;14.18;;;;;;;20.87;100.00;101119.25;5213261;28;20036;-64
2021/07/27 07:39:54;;;;;;;24.58;12.88;;;;;;;20.51;100.00;101125.53;5216247;28;20071;-64
2021/07/27 07:42:25;;;;;;;25.88;12.73;;;;;;;20.59;100.00;101127.97;5215173;28;20116;-65
2021/07/27 07:44:55;;;;;;;25.02;14.05;;;;;;;20.60;100.00;101128.81;5210029;28;20017;-64
2021/07/27 07:47:26;;;;;;;23.98;14.20;;;;;;;20.57;100.00;101124.63;5211154;28;20088;-65
2021/07/27 07:49:58;;;;;;;26.33;15.10;;;;;;;20.49;100.00;101132.28;5216234;28;20017;-64
2021/07/27 07:52:28;;;;;;;35.13;15.80;;;;;;;20.74;100.00;101133.06;5198853;28;20448;-65
2021/07/27 07:55:04;;;;;;;28.88;15.32;;;;;;;20.64;100.00;101132.75;5211842;28;20066;-65
2021/07/27 07:57:36;;;;;;;24.40;14.95;;;;;;;20.89;100.00;101138.97;5209986;28;20024;-64
2021/07/27 08:00:07;;;;;;;29.60;15.65;;;;;;;21.21;100.00;101130.59;5212139;28;20392;-64
2021/07/27 08:02:38;;;;;;;24.80;14.85;;;;;;;21.42;100.00;101129.31;5220409;28;20048;-64
2021/07/27 08:05:09;;;;;;;26.75;14.45;;;;;;;21.96;100.00;101124.72;5220953;28;20020;-64
2021/07/27 08:07:39;;;;;;;24.30;14.38;;;;;;;22.38;100.00;101128.22;5209320;28;20083;-64
2021/07/27 08:10:11;;;;;;;27.27;15.10;;;;;;;22.39;100.00;101138.13;5208932;28;20113;-64
2021/07/27 08:12:43;;;;;;;25.25;13.77;;;;;;;22.33;100.00;101127.28;5211231;28;20398;-64
2021/07/27 08:15:15;;;;;;;24.65;14.35;;;;;;;22.37;100.00;101140.22;5209022;28;20031;-64
2021/07/27 08:17:46;;;;;;;24.08;15.93;;;;;;;22.06;100.00;101143.28;5213506;28;20037;-64
2021/07/27 08:20:16;;;;;;;23.05;16.48;;;;;;;21.86;100.00;101146.31;5214946;28;20022;-64
2021/07/27 08:22:47;;;;;;;24.00;15.68;;;;;;;22.21;100.00;101133.56;5195900;28;20029;-63
2021/07/27 08:25:20;;;;;;;27.15;15.55;;;;;;;22.78;100.00;101143.06;5209824;28;20029;-64
2021/07/27 08:27:51;;;;;;;28.30;16.15;;;;;;;23.08;100.00;101134.72;5210678;28;20040;-64
2021/07/27 08:30:22;;;;;;;25.65;15.48;;;;;;;23.10;100.00;101140.78;5214861;28;20026;-64
2021/07/27 08:32:53;;;;;;;22.65;15.25;;;;;;;22.33;100.00;101133.56;5215066;28;20032;-64
2021/07/27 08:35:23;;;;;;;29.58;16.30;;;;;;;22.03;100.00;101138.25;5210668;28;20056;-64
2021/07/27 08:37:54;;;;;;;28.70;15.95;;;;;;;22.00;100.00;101136.84;5209261;28;20032;-64
2021/07/27 08:40:24;;;;;;;29.33;16.70;;;;;;;21.89;100.00;101143.97;5213261;28;20033;-64
2021/07/27 08:42:57;;;;;;;32.38;16.38;;;;;;;21.56;100.00;101140.88;5215417;28;20060;-64
2021/07/27 08:45:28;;;;;;;32.70;15.63;;;;;;;21.58;100.00;101141.47;5212648;28;20100;-64
2021/07/27 08:47:59;;;;;;;29.23;15.90;;;;;;;21.71;100.00;101144.00;5209191;28;20036;-64
2021/07/27 08:50:30;;;;;;;28.23;15.00;;;;;;;21.55;100.00;101150.97;5210236;28;20037;-64
2021/07/27 08:53:01;;;;;;;27.85;15.55;;;;;;;21.44;100.00;101155.31;5197769;28;20057;-64
2021/07/27 08:55:32;;;;;;;26.35;14.32;;;;;;;21.54;100.00;101153.94;5215073;28;20475;-64
2021/07/27 08:58:02;;;;;;;24.02;14.98;;;;;;;21.32;100.00;101154.41;5209117;28;20021;-64
2021/07/27 09:00:33;;;;;;;22.67;13.35;;;;;;;21.12;100.00;101160.09;5220890;28;20173;-64
2021/07/27 09:03:07;;;;;;;21.70;12.57;;;;;;;21.03;100.00;101166.06;5209767;28;20032;-64
2021/07/27 09:05:38;;;;;;;25.88;13.65;;;;;;;20.83;100.00;101169.03;5215890;28;20029;-64
2021/07/27 09:08:10;;;;;;;23.20;13.75;;;;;;;20.61;100.00;101171.34;5211941;28;20032;-64
2021/07/27 09:10:43;;;;;;;18.20;12.02;;;;;;;20.54;100.00;101171.44;5208397;28;20028;-64
2021/07/27 09:13:15;;;;;;;23.65;12.07;;;;;;;20.59;100.00;101170.75;5222140;28;20021;-64
2021/07/27 09:15:46;;;;;;;24.63;12.57;;;;;;;20.60;100.00;101170.53;5208563;28;20028;-65
2021/07/27 09:18:19;;;;;;;22.35;12.02;;;;;;;20.74;100.00;101168.50;5208937;28;20025;-64
2021/07/27 09:20:51;;;;;;;23.40;12.18;;;;;;;20.75;100.00;101172.91;5213421;28;20175;-64
2021/07/27 09:23:23;;;;;;;23.25;13.02;;;;;;;;;;5214731;28;20052;-65
2021/07/27 09:25:56;;;;;;;21.15;12.55;;;;;;;20.80;100.00;101169.50;5210660;28;20870;-64
2021/07/27 09:28:28;;;;;;;28.45;12.82;;;;;;;20.92;100.00;101176.69;5208297;28;20545;-64
2021/07/27 09:31:00;;;;;;;21.00;12.68;;;;;;;20.91;100.00;101172.28;5210295;28;20030;-64
2021/07/27 09:33:34;;;;;;;18.58;11.63;;;;;;;21.19;100.00;101170.94;5214877;28;20430;-64
2021/07/27 09:36:05;;;;;;;21.75;13.70;;;;;;;21.38;100.00;101177.22;5214600;28;20076;-65
2021/07/27 09:38:35;;;;;;;24.58;13.68;;;;;;;21.27;100.00;101170.59;5208647;28;20067;-64
2021/07/27 09:41:06;;;;;;;21.30;13.15;;;;;;;21.11;100.00;101177.53;5207807;28;20025;-64
2021/07/27 09:43:38;;;;;;;25.60;12.95;;;;;;;20.88;100.00;101175.50;5213347;28;20092;-64
2021/07/27 09:46:10;;;;;;;26.48;13.77;;;;;;;21.02;100.00;101172.59;5214646;28;20027;-64
2021/07/27 09:48:41;;;;;;;21.08;13.45;;;;;;;20.84;100.00;101168.81;5210930;28;20056;-64
2021/07/27 09:51:12;;;;;;;24.70;14.60;;;;;;;20.86;100.00;101163.97;5207695;28;20037;-64
2021/07/27 09:53:44;;;;;;;24.63;13.70;;;;;;;20.69;100.00;101157.44;5210954;28;20109;-64
2021/07/27 09:56:15;;;;;;;38.88;15.20;;;;;;;20.74;100.00;101154.88;5202565;28;20116;-64
2021/07/27 09:58:46;;;;;;;24.00;14.27;;;;;;;20.74;100.00;101163.06;5213932;28;20096;-64
2021/07/27 10:01:23;;;;;;;28.15;15.25;;;;;;;20.92;100.00;101151.31;5207364;28;20131;-64
2021/07/27 10:03:59;;;;;;;25.33;14.45;;;;;;;21.01;100.00;101146.38;5221075;28;20029;-64
2021/07/27 10:06:34;;;;;;;22.90;13.57;;;;;;;21.18;100.00;101145.53;5208147;28;20076;-64
2021/07/27 10:09:05;;;;;;;27.15;14.07;;;;;;;21.20;100.00;101150.78;5213805;28;20022;-64
2021/07/27 10:11:41;;;;;;;25.95;15.15;;;;;;;21.41;100.00;101155.78;5213942;28;20053;-64
2021/07/27 10:14:15;;;;;;;27.92;14.98;;;;;;;21.69;100.00;101146.16;5208326;28;20021;-64
2021/07/27 10:16:47;;;;;;;23.02;13.85;;;;;;;22.18;100.00;101149.59;5207773;28;20116;-64
2021/07/27 10:19:18;;;;;;;22.35;13.18;;;;;;;22.53;100.00;101148.78;5212166;28;20033;-64
2021/07/27 10:22:02;;;;;;;19.95;12.68;;;;;;;22.74;100.00;101156.38;5214410;28;20113;-64
2021/07/27 10:24:41;;;;;;;23.35;13.57;;;;;;;22.63;100.00;101151.75;5213201;28;20025;-64
2021/07/27 10:27:18;;;;;;;26.88;13.32;;;;;;;23.15;100.00;101154.56;5207623;28;20025;-63
2021/07/27 10:29:48;;;;;;;21.90;13.10;;;;;;;23.21;100.00;101154.44;5207413;28;20152;-64
2021/07/27 10:32:21;;;;;;;25.05;13.10;;;;;;;23.79;100.00;101147.06;5212594;28;20100;-63
2021/07/27 10:34:53;;;;;;;24.42;13.65;;;;;;;23.90;100.00;101145.34;5214173;28;20022;-64
2021/07/27 10:37:23;;;;;;;19.90;13.48;;;;;;;24.20;100.00;101143.13;5213621;28;20033;-64
2021/07/27 10:39:57;;;;;;;30.05;14.25;;;;;;;24.13;100.00;101138.88;5210713;28;20025;-64
2021/07/27 10:42:38;;;;;;;27.20;13.07;;;;;;;24.33;100.00;101138.38;5212446;28;20083;-64
2021/07/27 10:45:20;;;;;;;20.00;13.13;;;;;;;24.49;100.00;101134.81;5204758;28;20112;-64
2021/07/27 10:47:52;;;;;;;24.40;12.32;;;;;;;23.97;100.00;101146.84;5218261;28;20462;-64
2021/07/27 10:50:28;;;;;;;20.88;13.02;;;;;;;24.10;100.00;101134.75;5214387;28;20518;-64
2021/07/27 10:53:10;;;;;;;19.42;12.18;;;;;;;24.23;100.00;101137.13;5211667;28;20074;-64
2021/07/27 10:55:42;;;;;;;21.77;12.93;;;;;;;24.20;100.00;101134.06;5211776;28;20028;-64
2021/07/27 10:58:19;;;;;;;16.02;9.98;;;;;;;24.24;100.00;101133.28;5213833;28;20112;-64
2021/07/27 11:00:50;;;;;;;17.95;12.15;;;;;;;24.21;100.00;101141.22;5210298;28;20049;-64
2021/07/27 11:03:27;;;;;;;25.60;12.20;;;;;;;24.44;100.00;101134.72;5224283;28;20037;-64
2021/07/27 11:06:00;;;;;;;18.10;11.98;;;;;;;24.74;100.00;101137.06;5215515;28;20037;-63
2021/07/27 11:08:31;;;;;;;19.38;11.35;;;;;;;24.82;100.00;101142.13;5217698;28;20020;-64
2021/07/27 11:11:09;;;;;;;20.77;12.38;;;;;;;24.03;100.00;101145.84;5210587;28;20122;-64
2021/07/27 11:13:40;;;;;;;19.55;11.25;;;;;;;24.08;100.00;101152.50;5211100;28;20384;-64
2021/07/27 11:16:10;;;;;;;17.50;12.75;;;;;;;24.53;100.00;101141.44;5214543;28;20101;-64
2021/07/27 11:18:41;;;;;;;17.45;11.27;;;;;;;24.45;100.00;101142.72;5217420;28;20030;-64
2021/07/27 11:21:12;;;;;;;15.43;10.95;;;;;;;23.66;100.00;101141.91;5214245;28;20029;-64
2021/07/27 11:23:42;;;;;;;20.33;10.75;;;;;;;23.25;100.00;101144.66;5210897;28;20498;-64
2021/07/27 11:26:13;;;;;;;19.38;10.98;;;;;;;23.15;100.00;101136.25;5212305;28;20115;-63
2021/07/27 11:28:43;;;;;;;21.27;11.27;;;;;;;22.78;100.00;101135.69;5216841;28;20728;-64
2021/07/27 11:31:20;;;;;;;17.35;10.48;;;;;;;22.78;100.00;101132.94;5216256;28;20025;-64
2021/07/27 11:33:53;;;;;;;19.17;10.48;;;;;;;22.94;100.00;101137.72;5211693;28;20055;-64
2021/07/27 11:36:25;;;;;;;15.65;10.07;;;;;;;23.22;100.00;101133.38;5210708;28;20102;-64
2021/07/27 11:39:06;;;;;;;13.65;9.80;;;;;;;23.46;100.00;101126.72;5214181;28;20030;-64
2021/07/27 11:41:38;;;;;;;16.42;9.15;;;;;;;23.61;100.00;101128.09;5216804;28;20032;-64